Terminal Aerodrome Forecast
Issued by NWS Buffalo, NY

Home | Current Version | Previous Version | Text Only | Print | Product List | Glossary On
Versions: 1 2 3 4 5 6 7 8 9 10 11 12 13 14 15 16 17 18 19 20 21 22 23 24 25 26 27 28 29 30 31 32 33 34 35 36
000
FTUS41 KBUF 160531
TAFART
TAF
KART 160531Z 1606/1706 28004KT 5SM -SN OVC015
     FM160700 28005KT P6SM OVC020
     FM160900 27009KT P6SM BKN035
     FM162100 30007KT P6SM SKC
     FM170000 VRB03KT P6SM FEW200=

USA.gov is the U.S. government's official web portal to all federal, state and local government web resources and services.